createdAt,value
2023-02-04T00:00:14.565Z,99353.63
2023-02-04T00:02:42.709Z,99359.89
2023-02-04T00:05:11.064Z,99360.25
2023-02-04T00:07:41.258Z,99358.36
2023-02-04T00:10:13.900Z,99356.11
2023-02-04T00:12:41.867Z,99353.62
2023-02-04T00:15:10.814Z,99355.16
2023-02-04T00:17:39.730Z,99350.79
2023-02-04T00:20:08.224Z,99349.11
2023-02-04T00:22:38.133Z,99347.43
2023-02-04T00:25:06.657Z,99348.02
2023-02-04T00:27:35.245Z,99347.25
2023-02-04T00:30:04.898Z,99344.89
2023-02-04T00:32:33.013Z,99348.85
2023-02-04T00:35:04.778Z,99345.23
2023-02-04T00:37:33.404Z,99346.87
2023-02-04T00:40:01.432Z,99343.00
2023-02-04T00:42:29.796Z,99348.23
2023-02-04T00:44:59.820Z,99345.60
2023-02-04T00:47:27.813Z,99345.35
2023-02-04T00:49:57.776Z,99340.30
2023-02-04T00:52:26.655Z,99343.15
2023-02-04T00:54:54.698Z,99339.11
2023-02-04T00:57:23.526Z,99338.66
2023-02-04T00:59:51.749Z,99338.02
2023-02-04T01:02:20.032Z,99339.55
2023-02-04T01:04:49.543Z,99339.52
2023-02-04T01:07:19.765Z,99341.98
2023-02-04T01:09:47.852Z,99340.04
2023-02-04T01:12:16.032Z,99343.81
2023-02-04T01:14:44.643Z,99345.42
2023-02-04T01:17:13.702Z,99342.23
2023-02-04T01:19:41.956Z,99344.38
2023-02-04T01:22:10.863Z,99346.44
2023-02-04T01:24:39.053Z,99346.04
2023-02-04T01:27:25.957Z,99344.80
2023-02-04T01:29:54.673Z,99338.14
2023-02-04T01:32:22.819Z,99336.84
2023-02-04T01:34:51.152Z,99334.77
2023-02-04T01:37:20.011Z,99336.33
2023-02-04T01:39:48.066Z,99332.02
2023-02-04T01:42:16.163Z,99335.06
2023-02-04T01:44:44.278Z,99338.30
2023-02-04T01:47:12.421Z,99340.18
2023-02-04T01:49:41.676Z,99338.88
2023-02-04T01:52:10.330Z,99336.02
2023-02-04T01:54:39.604Z,99336.27
2023-02-04T01:57:10.635Z,99338.72
2023-02-04T01:59:42.505Z,99339.45
2023-02-04T02:02:40.141Z,99339.38
2023-02-04T02:05:10.493Z,99333.45
2023-02-04T02:07:40.411Z,99335.02
2023-02-04T02:10:10.109Z,99333.98
2023-02-04T02:12:38.712Z,99331.31
2023-02-04T02:15:10.053Z,99336.77
2023-02-04T02:17:38.691Z,99337.09
2023-02-04T02:20:09.604Z,99338.86
2023-02-04T02:22:59.186Z,99335.77
2023-02-04T02:25:27.395Z,99339.00
2023-02-04T02:27:56.333Z,99342.80
2023-02-04T02:30:24.419Z,99344.71
2023-02-04T02:32:52.532Z,99342.98
2023-02-04T02:35:21.696Z,99339.01
2023-02-04T02:37:51.030Z,99344.64
2023-02-04T02:40:19.270Z,99346.52
2023-02-04T02:42:49.364Z,99338.93
2023-02-04T02:45:25.363Z,99336.88
2023-02-04T02:47:53.458Z,99345.39
2023-02-04T02:50:23.519Z,99341.46
2023-02-04T02:52:53.324Z,99337.48
2023-02-04T02:55:23.968Z,99339.38
2023-02-04T02:57:52.493Z,99341.04
2023-02-04T03:00:25.732Z,99341.02
2023-02-04T03:02:57.755Z,99344.14
2023-02-04T03:05:25.997Z,99342.05
2023-02-04T03:07:54.914Z,99342.19
2023-02-04T03:10:23.218Z,99346.35
2023-02-04T03:12:51.813Z,99350.95
2023-02-04T03:15:20.017Z,99347.64
2023-02-04T03:17:48.023Z,99347.56
2023-02-04T03:20:16.324Z,99346.88
2023-02-04T03:22:44.563Z,99344.91
2023-02-04T03:25:13.316Z,99346.60
2023-02-04T03:27:42.241Z,99349.26
2023-02-04T03:30:11.340Z,99352.02
2023-02-04T03:32:41.866Z,99355.91
2023-02-04T03:35:10.203Z,99357.08
2023-02-04T03:37:39.403Z,99359.65
2023-02-04T03:40:08.590Z,99360.46
2023-02-04T03:42:38.741Z,99360.91
2023-02-04T03:45:07.218Z,99356.83
2023-02-04T03:47:36.354Z,99364.14
2023-02-04T03:50:05.329Z,99360.81
2023-02-04T03:52:34.255Z,99367.32
2023-02-04T03:55:02.310Z,99369.88
2023-02-04T03:57:30.542Z,99368.92
2023-02-04T03:59:58.575Z,99365.02
2023-02-04T04:02:27.185Z,99366.73
2023-02-04T04:04:55.433Z,99368.23
2023-02-04T04:07:24.109Z,99375.73
2023-02-04T04:09:52.546Z,99376.20
2023-02-04T04:12:20.556Z,99377.07
2023-02-04T04:14:49.270Z,99377.02
2023-02-04T04:17:17.432Z,99378.65
2023-02-04T04:19:45.513Z,99376.03
2023-02-04T04:22:13.904Z,99380.09
2023-02-04T04:24:42.702Z,99386.23
2023-02-04T04:27:10.805Z,99389.69
2023-02-04T04:29:38.737Z,99390.99
2023-02-04T04:32:07.346Z,99394.94
2023-02-04T04:34:36.038Z,99398.14
2023-02-04T04:37:04.236Z,99399.95
2023-02-04T04:39:32.174Z,99398.80
2023-02-04T04:42:00.101Z,99401.77
2023-02-04T04:44:28.212Z,99404.33
2023-02-04T04:46:56.474Z,99403.29
2023-02-04T04:49:24.648Z,99407.77
2023-02-04T04:51:52.671Z,99409.37
2023-02-04T04:54:21.080Z,99408.66
2023-02-04T04:56:49.089Z,99409.19
2023-02-04T04:59:17.342Z,99410.62
2023-02-04T05:01:45.427Z,99411.70
2023-02-04T05:04:14.691Z,99410.27
2023-02-04T05:06:43.016Z,99411.80
2023-02-04T05:09:10.979Z,99415.50
2023-02-04T05:11:39.051Z,99417.86
2023-02-04T05:14:07.302Z,99417.59
2023-02-04T05:16:36.213Z,99420.54
2023-02-04T05:19:05.138Z,99422.02
2023-02-04T05:21:33.904Z,99426.13
2023-02-04T05:24:02.240Z,99429.00
2023-02-04T05:26:31.389Z,99434.84
2023-02-04T05:29:02.847Z,99438.00
2023-02-04T05:31:33.214Z,99444.60
2023-02-04T05:34:02.055Z,99449.73
2023-02-04T05:36:30.197Z,99457.16
2023-02-04T05:38:58.776Z,99458.91
2023-02-04T05:41:27.027Z,99458.86
2023-02-04T05:43:55.140Z,99461.35
2023-02-04T05:46:23.061Z,99465.65
2023-02-04T05:48:51.062Z,99468.48
2023-02-04T05:51:18.998Z,99469.08
2023-02-04T05:53:47.308Z,99469.13
2023-02-04T05:56:15.371Z,99480.17
2023-02-04T05:58:45.990Z,99483.98
2023-02-04T06:01:14.044Z,99490.30
2023-02-04T06:03:42.069Z,99496.41
2023-02-04T06:06:10.669Z,99499.48
2023-02-04T06:08:39.093Z,99504.01
2023-02-04T06:11:07.296Z,99503.08
2023-02-04T06:13:35.713Z,99500.45
2023-02-04T06:16:05.082Z,99496.64
2023-02-04T06:18:33.618Z,99497.33
2023-02-04T06:21:06.885Z,99500.39
2023-02-04T06:23:34.950Z,99502.94
2023-02-04T06:26:03.206Z,99509.39
2023-02-04T06:28:31.905Z,99505.75
2023-02-04T06:30:59.956Z,99504.80
2023-02-04T06:33:28.119Z,99504.70
2023-02-04T06:35:56.073Z,99507.94
2023-02-04T06:38:26.823Z,99509.48
2023-02-04T06:40:55.427Z,99514.44
2023-02-04T06:43:25.493Z,99517.58
2023-02-04T06:45:55.092Z,99523.31
2023-02-04T06:48:23.133Z,99524.95
2023-02-04T06:50:52.791Z,99527.43
2023-02-04T06:53:20.991Z,99528.83
2023-02-04T06:55:49.523Z,99526.61
2023-02-04T06:58:17.492Z,99532.68
2023-02-04T07:00:46.021Z,99532.71
2023-02-04T07:03:14.739Z,99540.50
2023-02-04T07:05:51.253Z,99538.65
2023-02-04T07:08:19.805Z,99540.91
2023-02-04T07:10:48.406Z,99542.77
2023-02-04T07:13:20.488Z,99543.87
2023-02-04T07:15:51.243Z,99542.74
2023-02-04T07:18:20.436Z,99548.64
2023-02-04T07:20:52.896Z,99549.96
2023-02-04T07:23:21.077Z,99550.48
2023-02-04T07:25:49.198Z,99553.81
2023-02-04T07:28:17.293Z,99560.48
2023-02-04T07:30:45.513Z,99560.36
2023-02-04T07:33:13.771Z,99557.55
2023-02-04T07:35:42.392Z,99555.59
2023-02-04T07:38:10.696Z,99559.38
2023-02-04T07:40:39.513Z,99563.64
2023-02-04T07:43:08.393Z,99562.89
2023-02-04T07:45:36.621Z,99565.85
2023-02-04T07:48:04.999Z,99568.75
2023-02-04T07:50:34.428Z,99564.71
2023-02-04T07:53:02.933Z,99566.20
2023-02-04T07:55:31.044Z,99564.98
2023-02-04T07:57:59.225Z,99572.91
2023-02-04T08:00:27.272Z,99574.77
2023-02-04T08:02:55.355Z,99574.95
2023-02-04T08:05:23.424Z,99577.76
2023-02-04T08:10:01.150Z,99580.46
2023-02-04T08:12:29.460Z,99581.89
2023-02-04T08:14:57.837Z,99582.55
2023-02-04T08:17:25.886Z,99580.45
2023-02-04T08:19:53.927Z,99584.08
2023-02-04T08:22:22.854Z,99585.60
2023-02-04T08:24:51.225Z,99585.97
2023-02-04T08:27:19.265Z,99592.57
2023-02-04T08:29:47.708Z,99590.55
2023-02-04T08:32:17.345Z,99597.73
2023-02-04T08:34:45.280Z,99598.29
2023-02-04T08:37:15.467Z,99597.45
2023-02-04T08:39:46.339Z,99605.08
2023-02-04T08:42:15.753Z,99608.30
2023-02-04T08:44:43.884Z,99605.11
2023-02-04T08:47:11.996Z,99612.95
2023-02-04T08:49:40.325Z,99614.22
2023-02-04T08:52:11.781Z,99613.92
2023-02-04T08:54:55.016Z,99615.59
2023-02-04T08:57:25.500Z,99614.07
2023-02-04T08:59:53.829Z,99619.73
2023-02-04T09:02:21.848Z,99622.84
2023-02-04T09:04:50.116Z,99627.09
2023-02-04T09:07:18.361Z,99622.80
2023-02-04T09:09:46.787Z,99624.87
2023-02-04T09:12:19.716Z,99621.80
2023-02-04T09:14:48.380Z,99625.23
2023-02-04T09:17:16.416Z,99624.84
2023-02-04T09:19:44.959Z,99619.79
2023-02-04T09:22:15.574Z,99622.59
2023-02-04T09:24:43.908Z,99620.23
2023-02-04T09:27:12.385Z,99620.14
2023-02-04T09:29:40.560Z,99616.55
2023-02-04T09:32:08.712Z,99615.30
2023-02-04T09:34:37.092Z,99619.77
2023-02-04T09:37:05.503Z,99620.20
2023-02-04T09:39:33.877Z,99620.57
2023-02-04T09:42:01.895Z,99621.95
2023-02-04T09:44:30.577Z,99619.13
2023-02-04T09:47:00.185Z,99621.77
2023-02-04T09:49:28.609Z,99622.23
2023-02-04T12:20:15.724Z,99760.36
2023-02-04T12:22:44.430Z,99773.04
2023-02-04T12:25:17.056Z,99776.48
2023-02-04T12:27:46.133Z,99769.13
2023-02-04T12:30:14.552Z,99774.90
2023-02-04T12:32:42.519Z,99773.65
2023-02-04T12:35:13.003Z,99786.54
2023-02-04T12:37:41.296Z,99785.77
2023-02-04T12:40:15.935Z,99781.27
2023-02-04T12:42:44.773Z,99780.01
2023-02-04T12:45:14.733Z,99788.55
2023-02-04T12:47:44.006Z,99791.29
2023-02-04T12:50:22.800Z,99794.13
2023-02-04T12:52:55.788Z,99795.45
2023-02-04T12:55:26.771Z,99802.42
2023-02-04T12:57:56.301Z,99798.45
2023-02-04T13:00:24.640Z,99808.39
2023-02-04T13:02:54.940Z,99810.67
2023-02-04T13:05:23.318Z,99813.23
2023-02-04T13:07:51.350Z,99822.71
2023-02-04T13:10:20.189Z,99818.71
2023-02-04T13:12:51.418Z,99818.67
2023-02-04T13:15:20.270Z,99827.03
2023-02-04T13:17:49.923Z,99823.02
2023-02-04T13:20:18.125Z,99831.13
2023-02-04T13:22:46.620Z,99831.95
2023-02-04T13:25:14.938Z,99837.59
2023-02-04T13:27:43.473Z,99835.34
2023-02-04T13:30:14.114Z,99837.63
2023-02-04T13:32:44.199Z,99843.06
2023-02-04T13:35:12.195Z,99845.81
2023-02-04T13:37:40.341Z,99848.27
2023-02-04T13:40:09.568Z,99854.66
2023-02-04T13:42:39.414Z,99862.38
2023-02-04T13:45:12.402Z,99865.58
2023-02-04T13:47:40.592Z,99877.77
2023-02-04T13:50:08.942Z,99882.44
2023-02-04T13:52:37.529Z,99876.57
2023-02-04T13:55:06.313Z,99880.83
2023-02-04T13:57:34.526Z,99882.61
2023-02-04T14:00:03.329Z,99876.74
2023-02-04T14:02:43.152Z,99879.95
2023-02-04T14:05:12.926Z,99883.61
2023-02-04T14:07:42.104Z,99875.56
2023-02-04T14:10:12.233Z,99887.86
2023-02-04T14:12:42.839Z,99878.06
2023-02-04T14:15:13.219Z,99879.10
2023-02-04T14:17:45.473Z,99887.93
2023-02-04T14:20:18.620Z,99893.00
2023-02-04T14:22:47.338Z,99896.27
2023-02-04T14:25:16.832Z,99900.39
2023-02-04T14:27:45.058Z,99900.52
2023-02-04T14:30:17.629Z,99899.14
2023-02-04T14:32:45.852Z,99902.04
2023-02-04T14:35:14.006Z,99916.16
2023-02-04T14:37:42.007Z,99927.56
2023-02-04T14:40:12.529Z,99921.23
2023-02-04T14:42:41.240Z,99924.78
2023-02-04T14:45:10.258Z,99927.73
2023-02-04T14:47:40.498Z,99932.36
2023-02-04T14:50:14.373Z,99941.44
2023-02-04T14:52:44.624Z,99933.86
2023-02-04T14:55:14.566Z,99935.82
2023-02-04T14:57:42.756Z,99934.35
2023-02-04T15:00:11.756Z,99935.96
2023-02-04T15:02:40.641Z,99939.40
2023-02-04T15:05:12.463Z,99941.61
2023-02-04T15:07:41.953Z,99940.53
2023-02-04T15:10:13.204Z,99946.64
2023-02-04T15:12:44.824Z,99951.42
2023-02-04T15:15:12.963Z,99952.89
2023-02-04T15:17:42.409Z,99957.14
2023-02-04T15:20:11.428Z,99962.81
2023-02-04T15:22:40.199Z,99962.84
2023-02-04T15:25:08.693Z,99966.14
2023-02-04T15:27:40.211Z,99968.13
2023-02-04T15:30:09.121Z,99968.34
2023-02-04T15:32:38.772Z,99970.05
2023-02-04T15:43:24.729Z,99990.60
2023-02-04T15:45:53.508Z,99990.58
2023-02-04T15:48:24.137Z,99994.58
2023-02-04T15:50:55.062Z,99994.60
2023-02-04T15:53:23.179Z,99999.21
2023-02-04T15:55:54.223Z,99994.92
2023-02-04T15:58:22.586Z,99998.98
2023-02-04T16:00:50.751Z,100003.90
2023-02-04T16:03:21.981Z,100000.73
2023-02-04T16:05:52.246Z,100002.27
2023-02-04T16:08:21.531Z,100010.29
2023-02-04T16:10:54.172Z,100010.48
2023-02-04T16:21:55.393Z,100015.68
2023-02-04T16:24:23.506Z,100020.96
2023-02-04T16:26:56.973Z,100022.98
2023-02-04T16:29:26.431Z,100025.96
2023-02-04T16:31:53.572Z,100029.41
2023-02-04T16:34:20.695Z,100033.42
2023-02-04T16:36:49.325Z,100040.38
2023-02-04T16:39:16.254Z,100042.00
2023-02-04T16:41:43.404Z,100041.94
2023-02-04T16:44:19.125Z,100042.20
2023-02-04T16:46:45.908Z,100048.55
2023-02-04T16:49:13.423Z,100045.02
2023-02-04T16:51:43.038Z,100049.08
2023-02-04T16:54:10.477Z,100046.95
2023-02-04T16:56:38.883Z,100048.73
2023-02-04T16:59:06.649Z,100053.72
2023-02-04T17:01:35.245Z,100049.46
2023-02-04T17:04:06.382Z,100051.02
2023-02-04T17:06:37.492Z,100053.39
2023-02-04T17:09:04.708Z,100053.20
2023-02-04T17:11:33.699Z,100058.88
2023-02-04T17:14:02.419Z,100056.10
2023-02-04T17:16:30.309Z,100058.09
2023-02-04T17:18:57.023Z,100054.83
2023-02-04T17:21:25.875Z,100058.30
2023-02-04T17:23:53.025Z,100060.02
2023-02-04T17:26:24.445Z,100056.95
2023-02-04T17:28:51.302Z,100065.20
2023-02-04T17:31:18.430Z,100060.70
2023-02-04T17:33:47.227Z,100070.41
2023-02-04T17:36:14.726Z,100066.58
2023-02-04T17:38:41.678Z,100068.30
2023-02-04T17:41:10.852Z,100072.99
2023-02-04T17:43:38.061Z,100067.52
2023-02-04T17:46:05.179Z,100069.29
2023-02-04T17:48:33.587Z,100070.61
2023-02-04T19:48:35.387Z,100169.98
2023-02-04T19:51:21.440Z,100172.45
2023-02-04T19:53:55.453Z,100173.98
2023-02-04T19:56:44.688Z,100176.06
2023-02-04T19:59:34.392Z,100178.32
2023-02-04T20:02:16.408Z,100182.41
2023-02-04T20:04:46.437Z,100175.34
2023-02-04T20:07:24.853Z,100172.16
2023-02-04T20:10:21.648Z,100176.48
2023-02-04T20:12:52.448Z,100177.53
2023-02-04T20:15:23.886Z,100190.53
2023-02-04T20:17:52.697Z,100188.98
2023-02-04T20:20:33.134Z,100190.34
2023-02-04T20:23:03.892Z,100189.40
2023-02-04T20:25:46.540Z,100186.99
2023-02-04T20:28:17.423Z,100187.00
2023-02-04T20:30:48.705Z,100191.39
2023-02-04T20:33:28.905Z,100187.41
2023-02-04T20:36:21.111Z,100190.70
2023-02-04T20:39:20.123Z,100191.94
2023-02-04T20:41:48.407Z,100193.41
2023-02-04T20:44:30.207Z,100194.93
2023-02-04T20:47:20.108Z,100196.95
2023-02-04T20:49:56.529Z,100194.44
2023-02-04T20:52:55.852Z,100198.39
2023-02-04T20:55:36.936Z,100202.52
2023-02-04T20:58:09.001Z,100203.77
2023-02-04T21:00:41.093Z,100205.52
2023-02-04T21:03:38.130Z,100209.89
2023-02-04T21:06:31.485Z,100208.77
2023-02-04T21:09:07.998Z,100213.55
2023-02-04T21:11:43.025Z,100212.81
2023-02-04T21:14:12.629Z,100211.78
2023-02-04T21:16:40.894Z,100208.88
2023-02-04T21:19:13.118Z,100209.45
2023-02-04T21:21:43.920Z,100213.55
2023-02-04T21:24:14.041Z,100214.98
2023-02-04T21:26:44.466Z,100215.50
2023-02-04T21:29:19.146Z,100218.10
2023-02-04T21:32:15.088Z,100227.52
2023-02-04T21:35:27.898Z,100233.08
2023-02-04T21:38:07.052Z,100228.77
2023-02-04T21:40:59.557Z,100227.29
2023-02-04T21:43:36.643Z,100233.73
2023-02-04T21:46:10.895Z,100231.77
2023-02-04T21:48:41.278Z,100230.79
2023-02-04T21:51:09.695Z,100231.17
2023-02-04T21:53:39.233Z,100234.02
2023-02-04T21:56:14.666Z,100233.23
2023-02-04T21:58:44.145Z,100230.35
2023-02-04T22:01:25.885Z,100233.77
2023-02-04T22:03:53.965Z,100235.90
2023-02-04T22:06:22.085Z,100242.34
2023-02-04T22:08:51.028Z,100236.54
2023-02-04T22:11:19.510Z,100238.89
2023-02-04T22:13:48.089Z,100243.70
2023-02-04T22:16:17.251Z,100244.82
2023-02-04T22:18:45.898Z,100243.72
2023-02-04T22:21:14.296Z,100248.61
2023-02-04T22:23:42.764Z,100245.84
2023-02-04T22:26:17.575Z,100244.48
2023-02-04T22:28:45.703Z,100252.02
2023-02-04T22:31:16.145Z,100250.28
2023-02-04T22:33:44.544Z,100248.70
2023-02-04T22:36:13.022Z,100246.25
2023-02-04T22:38:42.924Z,100242.90
2023-02-04T22:41:17.068Z,100242.52
2023-02-04T22:43:45.263Z,100245.55
2023-02-04T22:46:13.330Z,100245.52
2023-02-04T22:48:41.854Z,100248.45
2023-02-04T22:51:12.880Z,100246.00
2023-02-04T22:53:41.238Z,100249.85
2023-02-04T22:56:11.354Z,100253.30
2023-02-04T22:58:39.429Z,100249.15
2023-02-04T23:01:08.315Z,100252.84
2023-02-04T23:03:38.441Z,100252.50
2023-02-04T23:06:06.516Z,100250.10
2023-02-04T23:08:34.950Z,100251.96
2023-02-04T23:11:13.028Z,100247.59
2023-02-04T23:13:41.108Z,100249.95
2023-02-04T23:16:10.112Z,100251.44
2023-02-04T23:18:38.497Z,100252.27
2023-02-04T23:21:10.289Z,100255.46
2023-02-04T23:23:38.661Z,100258.09
2023-02-04T23:26:08.074Z,100261.45
2023-02-04T23:28:36.736Z,100259.67
2023-02-04T23:31:06.204Z,100264.71
2023-02-04T23:33:34.422Z,100262.63
2023-02-04T23:36:03.015Z,100265.11
2023-02-04T23:38:32.116Z,100262.92
2023-02-04T23:41:00.377Z,100264.29
2023-02-04T23:43:29.284Z,100267.92
2023-02-04T23:45:57.789Z,100265.48
2023-02-04T23:48:26.129Z,100263.35
2023-02-04T23:50:57.174Z,100267.20
2023-02-04T23:53:25.394Z,100267.20
2023-02-04T23:55:53.622Z,100267.80
2023-02-04T23:58:21.967Z,100265.63
